Butterfly — C6UP2 — position and weather

sailwx.info

Track history (hours):
 
Tides and Currents Weather Stations Pressure Air Temp Water Temp Dewpoint Dewpoint Depression Visibility Wind Speed Wind Dir Waves Ship Positions

Butterfly

Last reported at 2017-Dec-08 21:07 UTC. Time now 2017-Dec-17 23:06 UTC.
Position N 09°07' W 079°48'.
Warning: this ship's position is 9 days out of date.

; draft 10.9 m.

Type: Ship. MMSI: 311985000.

Date/timePositionNaut miles runAvg speedWind from/ knotsBaromVisibWave heightAir tempDewpointWater temp
2017-Dec-08 21:07N 09°07' W 079°48'3 6.7
2017-Dec-08 20:42N 09°10' W 079°49'3 6.9
2017-Dec-08 20:16N 09°11' W 079°52'2 7.1
2017-Dec-08 20:01N 09°12' W 079°53'3 5.7
2017-Dec-08 19:30N 09°13' W 079°56'0 0.1
2017-Dec-08 18:55N 09°13' W 079°56'0 0.0
2017-Dec-08 18:25N 09°13' W 079°56'0 0.0
2017-Dec-08 17:49N 09°13' W 079°56'0 0.1
2017-Dec-08 17:25N 09°13' W 079°56'0 0.0
2017-Dec-08 16:34N 09°13' W 079°56'0 0.0
2017-Dec-08 16:22N 09°13' W 079°56'0 0.0
2017-Dec-08 15:58N 09°13' W 079°56'0 0.1
2017-Dec-08 15:25N 09°13' W 079°56'0 0.1
2017-Dec-08 14:58N 09°13' W 079°56'0 0.0
2017-Dec-08 14:28N 09°13' W 079°56'0 0.0
2017-Dec-08 13:58N 09°13' W 079°56'0 0.0
2017-Dec-08 13:28N 09°13' W 079°56'0 0.0
2017-Dec-08 12:58N 09°13' W 079°56'0 0.0
2017-Dec-08 12:19N 09°13' W 079°56'0 0.1
2017-Dec-08 11:55N 09°13' W 079°56'0 0.1
2017-Dec-08 11:28N 09°13' W 079°56'0 0.1
2017-Dec-08 10:58N 09°13' W 079°56'0 0.0
2017-Dec-08 10:28N 09°13' W 079°56'1 1.9
2017-Dec-08 10:00N 09°14' W 079°56'2 4.8
2017-Dec-08 09:30N 09°16' W 079°55'0 0.4
2017-Dec-08 09:00N 09°16' W 079°55'0 0.4
2017-Dec-08 08:30N 09°17' W 079°55'0 0.7
2017-Dec-08 08:00N 09°17' W 079°55'1 2.0
2017-Dec-08 07:30N 09°18' W 079°55'2 4.2
2017-Dec-08 07:00N 09°20' W 079°55'3 5.4
2017-Dec-08 06:30N 09°23' W 079°55'2 4.3
2017-Dec-08 06:00N 09°25' W 079°55'3 5.9
2017-Dec-08 05:30N 09°26' W 079°58'0 0.4
2017-Dec-08 04:58N 09°26' W 079°58'0 0.1
2017-Dec-08 04:25N 09°26' W 079°58'0 0.0
2017-Dec-08 04:01N 09°26' W 079°58'0 0.0
2017-Dec-08 03:31N 09°26' W 079°58'0 0.0
2017-Dec-08 03:01N 09°26' W 079°58'0 0.0
2017-Dec-08 02:28N 09°26' W 079°58'0 0.0
2017-Dec-08 01:58N 09°26' W 079°58'0 0.0
2017-Dec-08 01:28N 09°26' W 079°58'0 0.0
2017-Dec-08 00:58N 09°26' W 079°58'0 0.0
2017-Dec-08 00:22N 09°26' W 079°58'0 0.0
2017-Dec-07 23:25N 09°26' W 079°58'0 0.1
2017-Dec-07 22:58N 09°26' W 079°58'0 0.0
2017-Dec-07 22:28N 09°26' W 079°58'0 0.0
2017-Dec-07 21:58N 09°26' W 079°58'0 0.0
2017-Dec-07 21:28N 09°26' W 079°58'0 0.0
2017-Dec-07 21:01N 09°26' W 079°58'0 0.0
2017-Dec-07 20:31N 09°26' W 079°58'0 0.0
2017-Dec-07 19:58N 09°26' W 079°58'0 0.0
2017-Dec-07 19:31N 09°26' W 079°58'0 0.0
2017-Dec-07 18:58N 09°26' W 079°58'0 0.0
2017-Dec-07 18:31N 09°26' W 079°58'0 0.1
2017-Dec-07 18:01N 09°26' W 079°58'0 0.1
2017-Dec-07 17:31N 09°26' W 079°58'0 0.0
2017-Dec-07 16:58N 09°26' W 079°58'0 0.0
2017-Dec-07 16:28N 09°26' W 079°58'0 0.0
2017-Dec-07 15:58N 09°26' W 079°58'0 0.0
2017-Dec-07 15:31N 09°26' W 079°58'0 0.0
2017-Dec-07 14:58N 09°26' W 079°58'0 0.0
2017-Dec-07 14:28N 09°26' W 079°58'0 0.0
2017-Dec-07 14:01N 09°26' W 079°58'0 0.0
2017-Dec-07 13:31N 09°26' W 079°58'0 0.0
2017-Dec-07 12:58N 09°26' W 079°58'0 0.0
2017-Dec-07 12:31N 09°26' W 079°58'0 0.0
2017-Dec-07 11:58N 09°26' W 079°58'0 0.0
2017-Dec-07 11:28N 09°26' W 079°58'0 0.0
2017-Dec-07 10:58N 09°26' W 079°58'0 0.0
2017-Dec-07 10:28N 09°26' W 079°58'0 0.0
2017-Dec-07 09:55N 09°26' W 079°58'0 0.0
2017-Dec-07 09:31N 09°26' W 079°58'0 0.0
2017-Dec-07 08:55N 09°26' W 079°58'0 0.0
2017-Dec-07 08:31N 09°26' W 079°58'0 0.1
2017-Dec-07 07:58N 09°26' W 079°58'0 0.0
2017-Dec-07 07:28N 09°26' W 079°58'0 0.4
2017-Dec-07 07:00N 09°26' W 079°58'1 2.8
2017-Dec-07 06:30N 09°27' W 079°57'4 8.0
2017-Dec-07 06:00N 09°31' W 079°55'611.3
2017-Dec-07 05:30N 09°36' W 079°53'  
2017-Dec-01 19:02N 29°21' W 094°44'210.3
2017-Dec-01 18:50N 29°21' W 094°46'910.5
2017-Dec-01 17:56N 29°29' W 094°52'510.9
2017-Dec-01 17:31N 29°33' W 094°54'510.6
2017-Dec-01 17:00N 29°37' W 094°58'5 9.8
2017-Dec-01 16:30N 29°42' W 094°60'3 6.7
2017-Dec-01 16:00N 29°44' W 095°03'3 5.7
2017-Dec-01 15:30N 29°45' W 095°06'3 5.9
2017-Dec-01 15:00N 29°44' W 095°09'3 5.3
2017-Dec-01 14:30N 29°45' W 095°12'2 3.8
2017-Dec-01 14:00N 29°44' W 095°14'0 0.0
2017-Dec-01 13:27N 29°43' W 095°14'0 0.0
2017-Dec-01 12:54N 29°43' W 095°14'0 0.0
2017-Dec-01 12:28N 29°43' W 095°14'0 0.0
2017-Dec-01 11:55N 29°43' W 095°14'0 0.0
2017-Dec-01 11:28N 29°43' W 095°14'0 0.0
2017-Dec-01 10:55N 29°43' W 095°14'0 0.0
2017-Dec-01 10:28N 29°43' W 095°14'0 0.0
2017-Dec-01 09:55N 29°43' W 095°14'0 0.0
2017-Dec-01 09:28N 29°43' W 095°14'0 0.0
2017-Dec-01 08:55N 29°43' W 095°14'0 0.0
2017-Dec-01 08:28N 29°43' W 095°14'0 0.0
2017-Dec-01 07:58N 29°43' W 095°14'0 0.0
2017-Dec-01 07:31N 29°43' W 095°14'0 0.0
2017-Dec-01 06:52N 29°43' W 095°14'0 0.0
2017-Dec-01 06:25N 29°43' W 095°14'0 0.0
2017-Dec-01 05:58N 29°43' W 095°14'0 0.0
2017-Dec-01 05:31N 29°43' W 095°14'0 0.0
2017-Dec-01 04:54N 29°43' W 095°14'0 0.0
2017-Dec-01 04:28N 29°43' W 095°14'0 0.0
2017-Dec-01 03:58N 29°43' W 095°14'0 0.0
2017-Dec-01 03:24N 29°43' W 095°14'0 0.0
2017-Dec-01 02:55N 29°43' W 095°14'0 0.0
2017-Dec-01 02:28N 29°43' W 095°14'0 0.0
2017-Dec-01 01:46N 29°43' W 095°14'0 0.0
2017-Dec-01 01:27N 29°43' W 095°14'0 0.0
2017-Dec-01 01:01N 29°43' W 095°14'0 0.0
2017-Dec-01 00:28N 29°43' W 095°14'0 0.0
2017-Nov-30 23:58N 29°43' W 095°14'0 0.0
2017-Nov-30 23:13N 29°43' W 095°14'0 0.0
2017-Nov-30 23:01N 29°43' W 095°14'0 0.0
2017-Nov-30 22:31N 29°43' W 095°14'0 0.0
2017-Nov-30 21:49N 29°43' W 095°14'0 0.0
2017-Nov-30 21:31N 29°43' W 095°14'0 0.0
2017-Nov-30 20:58N 29°43' W 095°14'0 0.0
2017-Nov-30 20:28N 29°43' W 095°14'0 0.0
2017-Nov-30 19:58N 29°43' W 095°14'0 0.0
2017-Nov-30 19:25N 29°43' W 095°14'0 0.0
2017-Nov-30 19:01N 29°43' W 095°14'0 0.0
2017-Nov-30 18:31N 29°43' W 095°14'0 0.0
2017-Nov-30 17:58N 29°43' W 095°14'0 0.0
2017-Nov-30 17:24N 29°43' W 095°14'0 0.0
2017-Nov-30 16:58N 29°43' W 095°14'0 0.0
2017-Nov-30 16:30N 29°43' W 095°14'0 0.0
2017-Nov-30 15:58N 29°43' W 095°14'0 0.0
2017-Nov-30 15:31N 29°43' W 095°14'0 0.0
2017-Nov-30 14:54N 29°43' W 095°14'0 0.0
2017-Nov-30 14:30N 29°43' W 095°14'0 0.0
2017-Nov-30 13:58N 29°43' W 095°14'0 0.0
2017-Nov-30 13:30N 29°43' W 095°14'0 0.0
2017-Nov-30 12:55N 29°43' W 095°14'0 0.0
2017-Nov-30 12:25N 29°43' W 095°14'0 0.0
2017-Nov-30 11:52N 29°43' W 095°14'0 0.0
2017-Nov-30 11:28N 29°43' W 095°14'0 0.0
2017-Nov-30 11:01N 29°43' W 095°14'0 0.0
2017-Nov-30 10:09N 29°43' W 095°14'0 0.0
2017-Nov-30 09:58N 29°43' W 095°14'0 0.0
2017-Nov-30 09:31N 29°43' W 095°14'0 0.0
2017-Nov-30 08:58N 29°43' W 095°14'0 0.0
2017-Nov-30 08:22N 29°43' W 095°14'0 0.0
2017-Nov-30 08:01N 29°43' W 095°14'0 0.0
2017-Nov-30 07:28N 29°43' W 095°14'0 0.0
2017-Nov-30 06:58N 29°43' W 095°14'0 0.0
2017-Nov-30 06:28N 29°43' W 095°14'0 0.0
2017-Nov-30 06:01N 29°43' W 095°14'0 0.0
2017-Nov-30 05:28N 29°43' W 095°14'0 0.0
2017-Nov-30 04:55N 29°43' W 095°14'0 0.0
2017-Nov-30 04:31N 29°43' W 095°14'0 0.0
2017-Nov-30 04:00N 29°43' W 095°14'0 0.0
2017-Nov-30 03:31N 29°43' W 095°14'0 0.0
2017-Nov-30 02:49N 29°43' W 095°14'0 0.0
2017-Nov-30 02:28N 29°43' W 095°14'0 0.0
2017-Nov-30 02:01N 29°43' W 095°14'0 0.0
2017-Nov-30 01:31N 29°43' W 095°14'0 0.0
2017-Nov-30 01:01N 29°43' W 095°14'0 0.0
2017-Nov-30 00:25N 29°43' W 095°14'0 0.0
2017-Nov-29 23:58N 29°43' W 095°14'0 0.0
2017-Nov-29 23:31N 29°43' W 095°14'0 0.0
2017-Nov-29 23:00N 29°43' W 095°14'0 0.0
2017-Nov-29 22:16N 29°43' W 095°14'0 0.0
2017-Nov-29 21:52N 29°43' W 095°14'0 0.0
2017-Nov-29 21:27N 29°43' W 095°14'0 0.0
2017-Nov-29 20:58N 29°43' W 095°14'0 0.0
2017-Nov-29 20:22N 29°43' W 095°14'0 0.0
2017-Nov-29 19:55N 29°43' W 095°14'0 0.0
2017-Nov-29 19:30N 29°43' W 095°14'0 0.0
2017-Nov-29 19:01N 29°43' W 095°14'0 0.0
2017-Nov-29 18:31N 29°43' W 095°14'0 0.0
2017-Nov-29 17:55N 29°43' W 095°14'0 0.0
2017-Nov-29 17:28N 29°43' W 095°14'0 0.0
2017-Nov-29 17:01N 29°43' W 095°14'0 0.0
2017-Nov-29 16:25N 29°43' W 095°14'0 0.0
2017-Nov-29 16:01N 29°43' W 095°14'0 0.0
2017-Nov-29 15:25N 29°43' W 095°14'0 0.0
2017-Nov-29 15:01N 29°43' W 095°14'0 0.0
2017-Nov-29 14:25N 29°43' W 095°14'0 0.0
2017-Nov-29 14:01N 29°43' W 095°14'0 0.0
2017-Nov-29 13:27N 29°43' W 095°14'0 0.0
2017-Nov-29 12:55N 29°43' W 095°14'0 0.0
2017-Nov-29 12:27N 29°43' W 095°14'0 0.0
2017-Nov-29 12:01N 29°43' W 095°14'0 0.0
2017-Nov-29 11:25N 29°43' W 095°14'0 0.0
2017-Nov-29 10:55N 29°43' W 095°14'0 0.0
2017-Nov-29 10:28N 29°43' W 095°14'0 0.0
2017-Nov-29 09:55N 29°43' W 095°14'0 0.0
2017-Nov-29 09:28N 29°43' W 095°14'0 0.0
2017-Nov-29 08:58N 29°43' W 095°14'0 0.0
2017-Nov-29 08:27N 29°43' W 095°14'0 0.0
2017-Nov-29 08:01N 29°43' W 095°14'0 0.0
2017-Nov-29 07:31N 29°43' W 095°14'0 0.0
2017-Nov-29 06:55N 29°43' W 095°14'0 0.0
2017-Nov-29 06:25N 29°43' W 095°14'0 0.0
2017-Nov-29 05:55N 29°43' W 095°14'0 0.0
2017-Nov-29 05:10N 29°43' W 095°14'0 0.0
2017-Nov-29 04:49N 29°43' W 095°14'0 0.0
2017-Nov-29 04:25N 29°43' W 095°14'0 0.0
2017-Nov-29 03:58N 29°43' W 095°14'0 0.0
2017-Nov-29 03:22N 29°43' W 095°14'0 0.0
2017-Nov-29 02:58N 29°43' W 095°14'0 0.0
2017-Nov-29 02:22N 29°43' W 095°14'  
Track history (hours):
 
Tides and Currents Weather Stations Pressure Air Temp Water Temp Dewpoint Dewpoint Depression Visibility Wind Speed Wind Dir Waves Ship Positions

Butterfly

Last reported at 2017-Dec-08 21:07 UTC. Time now 2017-Dec-17 23:06 UTC.
Position N 09°07' W 079°48'.
Warning: this ship's position is 9 days out of date.

; draft 10.9 m.

Type: Ship. MMSI: 311985000.

Date/timePositionNaut miles runAvg speedWind from/ knotsBaromVisibWave heightAir tempDewpointWater temp
2017-Dec-08 21:07N 09°07' W 079°48'3 6.7
2017-Dec-08 20:42N 09°10' W 079°49'3 6.9
2017-Dec-08 20:16N 09°11' W 079°52'2 7.1
2017-Dec-08 20:01N 09°12' W 079°53'3 5.7
2017-Dec-08 19:30N 09°13' W 079°56'0 0.1
2017-Dec-08 18:55N 09°13' W 079°56'0 0.0
2017-Dec-08 18:25N 09°13' W 079°56'0 0.0
2017-Dec-08 17:49N 09°13' W 079°56'0 0.1
2017-Dec-08 17:25N 09°13' W 079°56'0 0.0
2017-Dec-08 16:34N 09°13' W 079°56'0 0.0
2017-Dec-08 16:22N 09°13' W 079°56'0 0.0
2017-Dec-08 15:58N 09°13' W 079°56'0 0.1
2017-Dec-08 15:25N 09°13' W 079°56'0 0.1
2017-Dec-08 14:58N 09°13' W 079°56'0 0.0
2017-Dec-08 14:28N 09°13' W 079°56'0 0.0
2017-Dec-08 13:58N 09°13' W 079°56'0 0.0
2017-Dec-08 13:28N 09°13' W 079°56'0 0.0
2017-Dec-08 12:58N 09°13' W 079°56'0 0.0
2017-Dec-08 12:19N 09°13' W 079°56'0 0.1
2017-Dec-08 11:55N 09°13' W 079°56'0 0.1
2017-Dec-08 11:28N 09°13' W 079°56'0 0.1
2017-Dec-08 10:58N 09°13' W 079°56'0 0.0
2017-Dec-08 10:28N 09°13' W 079°56'1 1.9
2017-Dec-08 10:00N 09°14' W 079°56'2 4.8
2017-Dec-08 09:30N 09°16' W 079°55'0 0.4
2017-Dec-08 09:00N 09°16' W 079°55'0 0.4
2017-Dec-08 08:30N 09°17' W 079°55'0 0.7
2017-Dec-08 08:00N 09°17' W 079°55'1 2.0
2017-Dec-08 07:30N 09°18' W 079°55'2 4.2
2017-Dec-08 07:00N 09°20' W 079°55'3 5.4
2017-Dec-08 06:30N 09°23' W 079°55'2 4.3
2017-Dec-08 06:00N 09°25' W 079°55'3 5.9
2017-Dec-08 05:30N 09°26' W 079°58'0 0.4
2017-Dec-08 04:58N 09°26' W 079°58'0 0.1
2017-Dec-08 04:25N 09°26' W 079°58'0 0.0
2017-Dec-08 04:01N 09°26' W 079°58'0 0.0
2017-Dec-08 03:31N 09°26' W 079°58'0 0.0
2017-Dec-08 03:01N 09°26' W 079°58'0 0.0
2017-Dec-08 02:28N 09°26' W 079°58'0 0.0
2017-Dec-08 01:58N 09°26' W 079°58'0 0.0
2017-Dec-08 01:28N 09°26' W 079°58'0 0.0
2017-Dec-08 00:58N 09°26' W 079°58'0 0.0
2017-Dec-08 00:22N 09°26' W 079°58'0 0.0
2017-Dec-07 23:25N 09°26' W 079°58'0 0.1
2017-Dec-07 22:58N 09°26' W 079°58'0 0.0
2017-Dec-07 22:28N 09°26' W 079°58'0 0.0
2017-Dec-07 21:58N 09°26' W 079°58'0 0.0
2017-Dec-07 21:28N 09°26' W 079°58'0 0.0
2017-Dec-07 21:01N 09°26' W 079°58'0 0.0
2017-Dec-07 20:31N 09°26' W 079°58'0 0.0
2017-Dec-07 19:58N 09°26' W 079°58'0 0.0
2017-Dec-07 19:31N 09°26' W 079°58'0 0.0
2017-Dec-07 18:58N 09°26' W 079°58'0 0.0
2017-Dec-07 18:31N 09°26' W 079°58'0 0.1
2017-Dec-07 18:01N 09°26' W 079°58'0 0.1
2017-Dec-07 17:31N 09°26' W 079°58'0 0.0
2017-Dec-07 16:58N 09°26' W 079°58'0 0.0
2017-Dec-07 16:28N 09°26' W 079°58'0 0.0
2017-Dec-07 15:58N 09°26' W 079°58'0 0.0
2017-Dec-07 15:31N 09°26' W 079°58'0 0.0
2017-Dec-07 14:58N 09°26' W 079°58'0 0.0
2017-Dec-07 14:28N 09°26' W 079°58'0 0.0
2017-Dec-07 14:01N 09°26' W 079°58'0 0.0
2017-Dec-07 13:31N 09°26' W 079°58'0 0.0
2017-Dec-07 12:58N 09°26' W 079°58'0 0.0
2017-Dec-07 12:31N 09°26' W 079°58'0 0.0
2017-Dec-07 11:58N 09°26' W 079°58'0 0.0
2017-Dec-07 11:28N 09°26' W 079°58'0 0.0
2017-Dec-07 10:58N 09°26' W 079°58'0 0.0
2017-Dec-07 10:28N 09°26' W 079°58'0 0.0
2017-Dec-07 09:55N 09°26' W 079°58'0 0.0
2017-Dec-07 09:31N 09°26' W 079°58'0 0.0
2017-Dec-07 08:55N 09°26' W 079°58'0 0.0
2017-Dec-07 08:31N 09°26' W 079°58'0 0.1
2017-Dec-07 07:58N 09°26' W 079°58'0 0.0
2017-Dec-07 07:28N 09°26' W 079°58'0 0.4
2017-Dec-07 07:00N 09°26' W 079°58'1 2.8
2017-Dec-07 06:30N 09°27' W 079°57'4 8.0
2017-Dec-07 06:00N 09°31' W 079°55'611.3
2017-Dec-07 05:30N 09°36' W 079°53'  
2017-Dec-01 19:02N 29°21' W 094°44'210.3
2017-Dec-01 18:50N 29°21' W 094°46'910.5
2017-Dec-01 17:56N 29°29' W 094°52'510.9
2017-Dec-01 17:31N 29°33' W 094°54'510.6
2017-Dec-01 17:00N 29°37' W 094°58'5 9.8
2017-Dec-01 16:30N 29°42' W 094°60'3 6.7
2017-Dec-01 16:00N 29°44' W 095°03'3 5.7
2017-Dec-01 15:30N 29°45' W 095°06'3 5.9
2017-Dec-01 15:00N 29°44' W 095°09'3 5.3
2017-Dec-01 14:30N 29°45' W 095°12'2 3.8
2017-Dec-01 14:00N 29°44' W 095°14'0 0.0
2017-Dec-01 13:27N 29°43' W 095°14'0 0.0
2017-Dec-01 12:54N 29°43' W 095°14'0 0.0
2017-Dec-01 12:28N 29°43' W 095°14'0 0.0
2017-Dec-01 11:55N 29°43' W 095°14'0 0.0
2017-Dec-01 11:28N 29°43' W 095°14'0 0.0
2017-Dec-01 10:55N 29°43' W 095°14'0 0.0
2017-Dec-01 10:28N 29°43' W 095°14'0 0.0
2017-Dec-01 09:55N 29°43' W 095°14'0 0.0
2017-Dec-01 09:28N 29°43' W 095°14'0 0.0
2017-Dec-01 08:55N 29°43' W 095°14'0 0.0
2017-Dec-01 08:28N 29°43' W 095°14'0 0.0
2017-Dec-01 07:58N 29°43' W 095°14'0 0.0
2017-Dec-01 07:31N 29°43' W 095°14'0 0.0
2017-Dec-01 06:52N 29°43' W 095°14'0 0.0
2017-Dec-01 06:25N 29°43' W 095°14'0 0.0
2017-Dec-01 05:58N 29°43' W 095°14'0 0.0
2017-Dec-01 05:31N 29°43' W 095°14'0 0.0
2017-Dec-01 04:54N 29°43' W 095°14'0 0.0
2017-Dec-01 04:28N 29°43' W 095°14'0 0.0
2017-Dec-01 03:58N 29°43' W 095°14'0 0.0
2017-Dec-01 03:24N 29°43' W 095°14'0 0.0
2017-Dec-01 02:55N 29°43' W 095°14'0 0.0
2017-Dec-01 02:28N 29°43' W 095°14'0 0.0
2017-Dec-01 01:46N 29°43' W 095°14'0 0.0
2017-Dec-01 01:27N 29°43' W 095°14'0 0.0
2017-Dec-01 01:01N 29°43' W 095°14'0 0.0
2017-Dec-01 00:28N 29°43' W 095°14'0 0.0
2017-Nov-30 23:58N 29°43' W 095°14'0 0.0
2017-Nov-30 23:13N 29°43' W 095°14'0 0.0
2017-Nov-30 23:01N 29°43' W 095°14'0 0.0
2017-Nov-30 22:31N 29°43' W 095°14'0 0.0
2017-Nov-30 21:49N 29°43' W 095°14'0 0.0
2017-Nov-30 21:31N 29°43' W 095°14'0 0.0
2017-Nov-30 20:58N 29°43' W 095°14'0 0.0
2017-Nov-30 20:28N 29°43' W 095°14'0 0.0
2017-Nov-30 19:58N 29°43' W 095°14'0 0.0
2017-Nov-30 19:25N 29°43' W 095°14'0 0.0
2017-Nov-30 19:01N 29°43' W 095°14'0 0.0
2017-Nov-30 18:31N 29°43' W 095°14'0 0.0
2017-Nov-30 17:58N 29°43' W 095°14'0 0.0
2017-Nov-30 17:24N 29°43' W 095°14'0 0.0
2017-Nov-30 16:58N 29°43' W 095°14'0 0.0
2017-Nov-30 16:30N 29°43' W 095°14'0 0.0
2017-Nov-30 15:58N 29°43' W 095°14'0 0.0
2017-Nov-30 15:31N 29°43' W 095°14'0 0.0
2017-Nov-30 14:54N 29°43' W 095°14'0 0.0
2017-Nov-30 14:30N 29°43' W 095°14'0 0.0
2017-Nov-30 13:58N 29°43' W 095°14'0 0.0
2017-Nov-30 13:30N 29°43' W 095°14'0 0.0
2017-Nov-30 12:55N 29°43' W 095°14'0 0.0
2017-Nov-30 12:25N 29°43' W 095°14'0 0.0
2017-Nov-30 11:52N 29°43' W 095°14'0 0.0
2017-Nov-30 11:28N 29°43' W 095°14'0 0.0
2017-Nov-30 11:01N 29°43' W 095°14'0 0.0
2017-Nov-30 10:09N 29°43' W 095°14'0 0.0
2017-Nov-30 09:58N 29°43' W 095°14'0 0.0
2017-Nov-30 09:31N 29°43' W 095°14'0 0.0
2017-Nov-30 08:58N 29°43' W 095°14'0 0.0
2017-Nov-30 08:22N 29°43' W 095°14'0 0.0
2017-Nov-30 08:01N 29°43' W 095°14'0 0.0
2017-Nov-30 07:28N 29°43' W 095°14'0 0.0
2017-Nov-30 06:58N 29°43' W 095°14'0 0.0
2017-Nov-30 06:28N 29°43' W 095°14'0 0.0
2017-Nov-30 06:01N 29°43' W 095°14'0 0.0
2017-Nov-30 05:28N 29°43' W 095°14'0 0.0
2017-Nov-30 04:55N 29°43' W 095°14'0 0.0
2017-Nov-30 04:31N 29°43' W 095°14'0 0.0
2017-Nov-30 04:00N 29°43' W 095°14'0 0.0
2017-Nov-30 03:31N 29°43' W 095°14'0 0.0
2017-Nov-30 02:49N 29°43' W 095°14'0 0.0
2017-Nov-30 02:28N 29°43' W 095°14'0 0.0
2017-Nov-30 02:01N 29°43' W 095°14'0 0.0
2017-Nov-30 01:31N 29°43' W 095°14'0 0.0
2017-Nov-30 01:01N 29°43' W 095°14'0 0.0
2017-Nov-30 00:25N 29°43' W 095°14'0 0.0
2017-Nov-29 23:58N 29°43' W 095°14'0 0.0
2017-Nov-29 23:31N 29°43' W 095°14'0 0.0
2017-Nov-29 23:00N 29°43' W 095°14'0 0.0
2017-Nov-29 22:16N 29°43' W 095°14'0 0.0
2017-Nov-29 21:52N 29°43' W 095°14'0 0.0
2017-Nov-29 21:27N 29°43' W 095°14'0 0.0
2017-Nov-29 20:58N 29°43' W 095°14'0 0.0
2017-Nov-29 20:22N 29°43' W 095°14'0 0.0
2017-Nov-29 19:55N 29°43' W 095°14'0 0.0
2017-Nov-29 19:30N 29°43' W 095°14'0 0.0
2017-Nov-29 19:01N 29°43' W 095°14'0 0.0
2017-Nov-29 18:31N 29°43' W 095°14'0 0.0
2017-Nov-29 17:55N 29°43' W 095°14'0 0.0
2017-Nov-29 17:28N 29°43' W 095°14'0 0.0
2017-Nov-29 17:01N 29°43' W 095°14'0 0.0
2017-Nov-29 16:25N 29°43' W 095°14'0 0.0
2017-Nov-29 16:01N 29°43' W 095°14'0 0.0
2017-Nov-29 15:25N 29°43' W 095°14'0 0.0
2017-Nov-29 15:01N 29°43' W 095°14'0 0.0
2017-Nov-29 14:25N 29°43' W 095°14'0 0.0
2017-Nov-29 14:01N 29°43' W 095°14'0 0.0
2017-Nov-29 13:27N 29°43' W 095°14'0 0.0
2017-Nov-29 12:55N 29°43' W 095°14'0 0.0
2017-Nov-29 12:27N 29°43' W 095°14'0 0.0
2017-Nov-29 12:01N 29°43' W 095°14'0 0.0
2017-Nov-29 11:25N 29°43' W 095°14'0 0.0
2017-Nov-29 10:55N 29°43' W 095°14'0 0.0
2017-Nov-29 10:28N 29°43' W 095°14'0 0.0
2017-Nov-29 09:55N 29°43' W 095°14'0 0.0
2017-Nov-29 09:28N 29°43' W 095°14'0 0.0
2017-Nov-29 08:58N 29°43' W 095°14'0 0.0
2017-Nov-29 08:27N 29°43' W 095°14'0 0.0
2017-Nov-29 08:01N 29°43' W 095°14'0 0.0
2017-Nov-29 07:31N 29°43' W 095°14'0 0.0
2017-Nov-29 06:55N 29°43' W 095°14'0 0.0
2017-Nov-29 06:25N 29°43' W 095°14'0 0.0
2017-Nov-29 05:55N 29°43' W 095°14'0 0.0
2017-Nov-29 05:10N 29°43' W 095°14'0 0.0
2017-Nov-29 04:49N 29°43' W 095°14'0 0.0
2017-Nov-29 04:25N 29°43' W 095°14'0 0.0
2017-Nov-29 03:58N 29°43' W 095°14'0 0.0
2017-Nov-29 03:22N 29°43' W 095°14'0 0.0
2017-Nov-29 02:58N 29°43' W 095°14'0 0.0
2017-Nov-29 02:22N 29°43' W 095°14'  

Dump ship's entire track history